Time;durP1;ratioP1;P1;durP2;ratioP2;P2;SDS_P1;SDS_P2;PMS_P1;PMS_P2;Temp;Humidity;BMP_temperature;BMP_pressure;BME280_temperature;BME280_humidity;BME280_pressure;Samples;Min_cycle;Max_cycle;Signal;HPM_P1;HPM_P2
2022/08/21 00:00:27;;;;;;;20.17;13.25;;;;;;;21.49;100.00;99762.94;5102471;28;20050;-64
2022/08/21 00:03:03;;;;;;;17.83;12.25;;;;;;;21.45;100.00;99749.94;5103375;27;20373;-64
2022/08/21 00:05:31;;;;;;;14.43;12.93;;;;;;;21.47;100.00;99747.84;5103004;27;20027;-64
2022/08/21 00:07:56;;;;;;;21.80;13.82;;;;;;;21.43;100.00;99754.78;5102631;28;20084;-65
2022/08/21 00:10:22;;;;;;;24.38;13.98;;;;;;;21.37;100.00;99744.72;5101221;27;20027;-64
2022/08/21 00:12:48;;;;;;;20.35;14.50;;;;;;;21.37;100.00;99752.91;5104099;27;20413;-65
2022/08/21 00:15:17;;;;;;;21.10;13.73;;;;;;;21.36;100.00;99757.56;5103314;28;20450;-65
2022/08/21 00:17:43;;;;;;;16.77;12.80;;;;;;;21.37;100.00;99751.03;5103348;28;20522;-65
2022/08/21 00:20:11;;;;;;;17.08;12.07;;;;;;;21.37;100.00;99750.19;5103731;27;20055;-65
2022/08/21 00:22:37;;;;;;;13.88;11.90;;;;;;;21.33;100.00;99738.88;5101802;28;20534;-65
2022/08/21 00:25:04;;;;;;;20.25;13.07;;;;;;;21.37;100.00;99742.84;5104482;28;20034;-66
2022/08/21 00:27:30;;;;;;;19.17;13.60;;;;;;;21.36;100.00;99735.72;5102525;28;20034;-66
2022/08/21 00:29:55;;;;;;;17.63;13.13;;;;;;;21.38;100.00;99743.69;5102727;28;20031;-65
2022/08/21 00:32:23;;;;;;;19.63;13.15;;;;;;;21.33;100.00;99743.50;5104753;27;20129;-66
2022/08/21 00:34:48;;;;;;;20.75;13.05;;;;;;;21.30;100.00;99733.84;5100932;28;20031;-65
2022/08/21 00:37:14;;;;;;;16.75;12.88;;;;;;;21.29;100.00;99742.25;5102707;28;20075;-65
2022/08/21 00:39:40;;;;;;;17.23;12.32;;;;;;;21.25;100.00;99735.56;5102399;28;20504;-65
2022/08/21 00:42:05;;;;;;;18.85;12.02;;;;;;;21.25;100.00;99730.94;5100399;28;20024;-65
2022/08/21 00:44:31;;;;;;;14.07;12.27;;;;;;;21.23;100.00;99727.59;5102394;28;20020;-65
2022/08/21 00:46:57;;;;;;;16.98;12.32;;;;;;;21.29;100.00;99734.06;5105638;28;20092;-65
2022/08/21 00:49:22;;;;;;;15.32;10.98;;;;;;;21.20;100.00;99729.91;5103739;28;20028;-65
2022/08/21 00:51:54;;;;;;;17.02;13.15;;;;;;;21.21;100.00;99739.75;5102505;28;20028;-65
2022/08/21 00:54:24;;;;;;;14.68;12.88;;;;;;;21.16;100.00;99737.72;5102989;28;20035;-66
2022/08/21 00:56:54;;;;;;;15.25;11.52;;;;;;;21.20;100.00;99744.41;5103043;28;20623;-65
2022/08/21 00:59:21;;;;;;;13.90;10.73;;;;;;;21.21;100.00;99747.94;5102181;28;20031;-65
2022/08/21 01:01:47;;;;;;;13.25;11.32;;;;;;;21.21;100.00;99745.22;5103135;28;20031;-65
2022/08/21 01:04:13;;;;;;;17.58;12.18;;;;;;;21.27;100.00;99741.63;5103781;28;20260;-65
2022/08/21 01:06:39;;;;;;;15.93;10.52;;;;;;;21.23;100.00;99738.50;5100549;28;20045;-66
2022/08/21 01:09:04;;;;;;;14.63;11.27;;;;;;;21.24;100.00;99744.78;5103222;28;20035;-65
2022/08/21 01:11:30;;;;;;;14.40;10.50;;;;;;;21.21;100.00;99739.75;5106997;27;20187;-65
2022/08/21 01:13:57;;;;;;;13.02;9.90;;;;;;;21.15;100.00;99732.47;5109187;27;20084;-65
2022/08/21 01:16:23;;;;;;;12.23;10.15;;;;;;;21.07;100.00;99721.78;5107276;27;20031;-66
2022/08/21 01:18:50;;;;;;;11.15;9.10;;;;;;;21.14;100.00;99733.50;5106744;27;20406;-66
2022/08/21 01:21:22;;;;;;;9.30;8.13;;;;;;;21.07;100.00;99741.72;5107288;27;20050;-65
2022/08/21 01:23:49;;;;;;;13.43;9.00;;;;;;;21.05;100.00;99740.28;5105706;28;20051;-65
2022/08/21 01:26:18;;;;;;;9.55;8.32;;;;;;;21.01;100.00;99739.88;5110374;27;20107;-66
2022/08/21 01:29:03;;;;;;;8.95;7.47;;;;;;;20.97;100.00;99737.78;5109011;27;20024;-65
2022/08/21 01:31:29;;;;;;;9.20;7.97;;;;;;;20.93;100.00;99723.69;5089652;27;20035;-65
2022/08/21 01:33:56;;;;;;;9.00;8.07;;;;;;;20.96;100.00;99722.47;5107085;28;20031;-65
2022/08/21 01:36:22;;;;;;;9.32;8.23;;;;;;;20.94;100.00;99728.16;5108928;27;20039;-65
2022/08/21 01:38:48;;;;;;;7.93;6.90;;;;;;;20.84;100.00;99714.09;5109014;28;20046;-65
2022/08/21 01:41:15;;;;;;;9.02;7.03;;;;;;;20.89;100.00;99721.63;5111126;27;20051;-65
2022/08/21 01:43:41;;;;;;;9.63;7.47;;;;;;;20.86;100.00;99713.91;5109589;27;20085;-65
2022/08/21 01:46:08;;;;;;;12.02;8.55;;;;;;;20.84;100.00;99715.97;5110998;27;20034;-65
2022/08/21 01:48:33;;;;;;;13.07;9.02;;;;;;;20.88;100.00;99717.22;5108128;27;20024;-66
2022/08/21 01:50:59;;;;;;;9.15;8.20;;;;;;;20.85;100.00;99712.19;5108448;27;20036;-65
2022/08/21 01:53:25;;;;;;;10.23;9.10;;;;;;;20.83;100.00;99717.03;5108230;27;20584;-65
2022/08/21 01:55:50;;;;;;;12.32;8.27;;;;;;;20.79;100.00;99713.09;5108481;27;20118;-66
2022/08/21 01:58:16;;;;;;;11.52;8.15;;;;;;;20.74;100.00;99708.28;5107901;27;20451;-65
2022/08/21 02:00:41;;;;;;;9.95;8.23;;;;;;;20.72;100.00;99717.69;5108691;27;20424;-66
2022/08/21 02:03:07;;;;;;;9.50;8.20;;;;;;;20.70;100.00;99706.19;5106427;28;20047;-66
2022/08/21 02:05:32;;;;;;;10.75;8.80;;;;;;;20.77;100.00;99718.75;5108331;27;20031;-65
2022/08/21 02:07:58;;;;;;;8.13;7.32;;;;;;;20.73;100.00;99712.03;5108596;27;20044;-66
2022/08/21 02:10:28;;;;;;;9.10;7.57;;;;;;;20.70;100.00;99719.81;5110487;27;20022;-65
2022/08/21 02:12:54;;;;;;;11.60;7.47;;;;;;;20.71;100.00;99716.03;5106564;27;20030;-65
2022/08/21 02:15:21;;;;;;;8.10;7.05;;;;;;;20.65;100.00;99703.25;5110382;27;20041;-65
2022/08/21 02:17:54;;;;;;;7.63;6.93;;;;;;;20.68;100.00;99725.47;5107013;27;20031;-65
2022/08/21 02:20:23;;;;;;;8.60;6.88;;;;;;;20.68;100.00;99717.31;5107259;28;20093;-65
2022/08/21 02:22:49;;;;;;;8.40;6.40;;;;;;;20.64;100.00;99707.88;5109058;27;20032;-66
2022/08/21 02:25:16;;;;;;;11.05;6.70;;;;;;;20.67;100.00;99710.16;5106085;27;20038;-65
2022/08/21 02:27:44;;;;;;;8.02;7.22;;;;;;;20.63;100.00;99694.47;5108852;27;20375;-65
2022/08/21 02:30:15;;;;;;;7.82;7.03;;;;;;;20.61;100.00;99704.75;5108741;27;20024;-65
2022/08/21 02:32:41;;;;;;;8.45;6.80;;;;;;;20.60;100.00;99708.53;5106977;28;20039;-65
2022/08/21 02:35:09;;;;;;;7.63;6.82;;;;;;;20.62;100.00;99700.94;5107538;27;20030;-65
2022/08/21 02:37:41;;;;;;;7.20;6.50;;;;;;;20.57;100.00;99693.41;5109262;27;20035;-65
2022/08/21 02:40:11;;;;;;;6.80;6.20;;;;;;;20.54;100.00;99693.03;5108203;27;20154;-65
2022/08/21 02:42:37;;;;;;;7.32;6.30;;;;;;;20.53;100.00;99689.44;5106496;27;20039;-65
2022/08/21 02:45:03;;;;;;;6.55;5.95;;;;;;;20.50;100.00;99692.59;5108805;27;20039;-65
2022/08/21 02:47:28;;;;;;;7.30;6.60;;;;;;;20.42;100.00;99678.38;5108430;27;20776;-65
2022/08/21 02:49:54;;;;;;;7.97;6.88;;;;;;;20.41;100.00;99685.69;5109432;27;20031;-65
2022/08/21 02:52:19;;;;;;;6.75;6.15;;;;;;;20.43;100.00;99682.75;5108156;27;20039;-65
2022/08/21 02:54:44;;;;;;;6.88;6.28;;;;;;;20.40;100.00;99680.47;5105874;28;20034;-65
2022/08/21 02:57:10;;;;;;;6.82;6.22;;;;;;;20.44;100.00;99687.19;5111400;27;20032;-66
2022/08/21 02:59:35;;;;;;;7.70;6.90;;;;;;;20.41;100.00;99684.88;5107675;27;20027;-65
2022/08/21 03:02:02;;;;;;;7.30;6.68;;;;;;;20.36;100.00;99676.50;5107500;27;20041;-66
2022/08/21 03:04:27;;;;;;;6.65;6.05;;;;;;;20.40;100.00;99685.91;5106734;28;20031;-65
2022/08/21 03:06:52;;;;;;;7.45;6.75;;;;;;;20.40;100.00;99689.47;5107546;27;20027;-66
2022/08/21 03:09:18;;;;;;;6.53;5.70;;;;;;;20.45;100.00;99697.00;5104982;27;20024;-65
2022/08/21 03:11:44;;;;;;;6.45;5.82;;;;;;;20.44;100.00;99690.72;5107567;27;20461;-65
2022/08/21 03:14:09;;;;;;;6.80;6.13;;;;;;;20.36;100.00;99679.22;5110650;27;20777;-65
2022/08/21 03:16:34;;;;;;;6.60;6.00;;;;;;;20.42;100.00;99689.28;5107336;27;20031;-65
2022/08/21 03:19:00;;;;;;;7.68;6.95;;;;;;;20.43;100.00;99685.50;5107417;27;20035;-65
2022/08/21 03:21:25;;;;;;;6.45;5.93;;;;;;;20.38;100.00;99688.88;5107332;27;20038;-65
2022/08/21 03:23:51;;;;;;;6.72;6.03;;;;;;;20.37;100.00;99683.63;5107429;27;20100;-65
2022/08/21 03:26:17;;;;;;;6.78;6.07;;;;;;;20.36;100.00;99690.97;5107758;27;20027;-65
2022/08/21 03:28:43;;;;;;;7.75;6.95;;;;;;;20.27;100.00;99680.50;5105312;27;20405;-65
2022/08/21 03:31:08;;;;;;;7.13;6.43;;;;;;;20.31;100.00;99685.31;5104568;28;20020;-65
2022/08/21 03:33:34;;;;;;;6.30;5.70;;;;;;;20.30;100.00;99694.53;5106784;27;20035;-65
2022/08/21 03:36:04;;;;;;;6.10;5.50;;;;;;;20.32;100.00;99699.75;5107489;27;20443;-65
2022/08/21 03:38:31;;;;;;;8.00;5.90;;;;;;;20.30;100.00;99694.53;5108111;27;20750;-65
2022/08/21 03:40:57;;;;;;;6.55;5.95;;;;;;;20.35;100.00;99702.06;5104709;28;20035;-66
2022/08/21 03:43:22;;;;;;;7.03;5.68;;;;;;;20.31;100.00;99695.38;5107101;27;20032;-65
2022/08/21 03:45:48;;;;;;;6.55;5.95;;;;;;;20.32;100.00;99694.31;5106511;28;20027;-65
2022/08/21 03:48:14;;;;;;;6.95;6.25;;;;;;;20.34;100.00;99689.50;5109855;27;20028;-65
2022/08/21 03:50:42;;;;;;;6.43;5.93;;;;;;;20.30;100.00;99697.25;5108228;27;20043;-65
2022/08/21 03:53:11;;;;;;;6.57;5.97;;;;;;;20.32;100.00;99708.78;5103479;27;20523;-65
2022/08/21 03:55:37;;;;;;;6.47;5.88;;;;;;;20.27;100.00;99705.00;5105985;28;20053;-65
2022/08/21 03:58:03;;;;;;;6.10;5.53;;;;;;;20.24;100.00;99705.44;5105984;28;20504;-65
2022/08/21 04:00:28;;;;;;;6.88;6.28;;;;;;;20.17;100.00;99700.84;5106610;28;20035;-66
2022/08/21 04:02:54;;;;;;;6.75;6.10;;;;;;;20.17;100.00;99714.47;5107363;27;20553;-65
2022/08/21 04:05:29;;;;;;;7.32;6.72;;;;;;;20.10;100.00;99716.31;5108085;27;20065;-65
2022/08/21 04:08:01;;;;;;;6.30;5.70;;;;;;;20.13;100.00;99715.09;5106207;27;20119;-65
2022/08/21 04:10:30;;;;;;;6.90;6.05;;;;;;;20.10;100.00;99719.03;5105626;28;20108;-65
2022/08/21 04:12:56;;;;;;;6.35;5.75;;;;;;;20.09;100.00;99714.63;5108147;27;20038;-65
2022/08/21 04:15:23;;;;;;;6.57;5.97;;;;;;;20.14;100.00;99716.75;5107372;27;20029;-65
2022/08/21 04:17:49;;;;;;;8.45;6.90;;;;;;;20.10;100.00;99715.47;5105177;27;20024;-65
2022/08/21 04:20:16;;;;;;;7.97;6.97;;;;;;;20.05;100.00;99713.38;5106242;27;20511;-65
2022/08/21 04:22:44;;;;;;;8.23;7.40;;;;;;;20.10;100.00;99710.03;5105352;28;20146;-66
2022/08/21 04:25:10;;;;;;;8.93;7.85;;;;;;;20.08;100.00;99707.50;5104061;28;20631;-65
2022/08/21 04:27:35;;;;;;;9.30;7.22;;;;;;;20.12;100.00;99716.97;5105143;28;20173;-65
2022/08/21 04:30:01;;;;;;;7.70;7.00;;;;;;;20.19;100.00;99725.16;5105372;28;21463;-66
2022/08/21 04:32:27;;;;;;;7.63;6.82;;;;;;;20.19;100.00;99725.97;5107263;28;20487;-65
2022/08/21 04:35:09;;;;;;;9.52;7.53;;;;;;;20.15;100.00;99715.69;5104641;28;20103;-66
2022/08/21 04:37:35;;;;;;;7.65;6.95;;;;;;;20.23;100.00;99720.94;5105595;28;20100;-66
2022/08/21 04:40:01;;;;;;;7.85;6.95;;;;;;;20.25;100.00;99732.47;5107695;27;20039;-66
2022/08/21 04:42:27;;;;;;;8.90;7.65;;;;;;;20.25;100.00;99728.91;5104070;28;20148;-66
2022/08/21 04:44:54;;;;;;;7.55;6.85;;;;;;;20.27;100.00;99737.69;5109882;27;20039;-65
2022/08/21 04:47:20;;;;;;;9.45;7.38;;;;;;;20.19;100.00;99730.59;5112709;27;20031;-65
2022/08/21 04:49:46;;;;;;;10.88;8.82;;;;;;;20.28;100.00;99728.47;5108732;28;20364;-66
2022/08/21 04:52:15;;;;;;;8.65;7.85;;;;;;;20.25;100.00;99737.06;5109677;27;20031;-66
2022/08/21 04:54:43;;;;;;;8.30;7.50;;;;;;;20.30;100.00;99748.16;5110949;27;20454;-65
2022/08/21 04:57:11;;;;;;;9.48;6.93;;;;;;;20.31;100.00;99747.94;5111658;27;20106;-65
2022/08/21 04:59:50;;;;;;;9.90;8.88;;;;;;;20.33;100.00;99748.59;5108089;27;20046;-65
2022/08/21 05:02:16;;;;;;;10.73;7.78;;;;;;;20.34;100.00;99758.44;5108403;28;20470;-65
2022/08/21 05:04:47;;;;;;;11.82;8.02;;;;;;;20.25;100.00;99745.25;5107373;28;20032;-65
2022/08/21 05:07:17;;;;;;;8.75;7.93;;;;;;;20.31;100.00;99747.13;5111187;27;20031;-64
2022/08/21 05:09:43;;;;;;;9.55;7.72;;;;;;;20.39;100.00;99744.16;5111946;27;20031;-65
2022/08/21 05:12:09;;;;;;;12.95;8.48;;;;;;;20.50;100.00;99743.53;5109098;27;20020;-65
2022/08/21 05:14:34;;;;;;;9.43;7.80;;;;;;;20.51;100.00;99745.22;5112057;27;20083;-65
2022/08/21 05:17:00;;;;;;;8.55;7.70;;;;;;;20.51;100.00;99756.13;5109368;27;20019;-64
2022/08/21 05:19:26;;;;;;;8.73;7.93;;;;;;;20.50;100.00;99754.44;5107811;28;20111;-65
2022/08/21 05:21:52;;;;;;;9.57;8.63;;;;;;;20.59;100.00;99745.81;5109172;27;20035;-65
2022/08/21 05:24:17;;;;;;;9.80;8.80;;;;;;;20.64;100.00;99761.53;5109118;27;20039;-66
2022/08/21 05:26:44;;;;;;;10.25;9.15;;;;;;;20.65;100.00;99760.47;5104975;27;20047;-66
2022/08/21 05:29:10;;;;;;;9.30;8.25;;;;;;;20.55;100.00;99755.47;5107807;27;20047;-65
2022/08/21 05:31:36;;;;;;;13.02;10.63;;;;;;;20.58;100.00;99754.22;5106982;27;20059;-65
2022/08/21 05:34:02;;;;;;;9.25;8.30;;;;;;;20.62;100.00;99764.47;5108167;27;20117;-64
2022/08/21 05:36:27;;;;;;;10.90;9.63;;;;;;;20.71;100.00;99768.66;5110105;27;20067;-65
2022/08/21 05:38:53;;;;;;;12.90;9.77;;;;;;;20.66;100.00;99757.53;5108476;28;20048;-64
2022/08/21 05:41:19;;;;;;;9.93;8.80;;;;;;;20.68;100.00;99768.22;5109323;27;20035;-65
2022/08/21 05:43:44;;;;;;;12.95;9.98;;;;;;;20.78;100.00;99779.53;5106882;28;20031;-64
2022/08/21 05:46:10;;;;;;;11.57;9.45;;;;;;;20.84;100.00;99775.97;5109410;27;20034;-65
2022/08/21 05:48:36;;;;;;;9.93;8.93;;;;;;;20.89;100.00;99776.97;5108127;27;20475;-65
2022/08/21 05:51:07;;;;;;;10.88;9.57;;;;;;;20.94;100.00;99774.50;5108419;27;20035;-64
2022/08/21 05:53:33;;;;;;;11.25;8.60;;;;;;;20.97;100.00;99771.34;5107394;27;20027;-65
2022/08/21 05:55:58;;;;;;;10.73;8.55;;;;;;;20.98;100.00;99763.97;5107939;27;20204;-64
2022/08/21 05:58:24;;;;;;;13.05;10.13;;;;;;;21.04;100.00;99776.75;5106589;28;20031;-65
2022/08/21 06:00:51;;;;;;;10.30;9.13;;;;;;;21.08;100.00;99762.47;5108661;27;20040;-65
2022/08/21 06:03:24;;;;;;;9.82;8.82;;;;;;;21.05;100.00;99759.38;5109113;27;20458;-66
2022/08/21 06:05:50;;;;;;;12.07;9.40;;;;;;;21.09;100.00;99757.88;5108423;27;20051;-65
2022/08/21 06:08:17;;;;;;;9.80;8.13;;;;;;;21.17;100.00;99768.53;5106965;27;20055;-66
2022/08/21 06:10:44;;;;;;;11.40;8.60;;;;;;;21.19;100.00;99767.28;5108510;28;20040;-66
2022/08/21 06:13:10;;;;;;;10.25;8.85;;;;;;;21.21;100.00;99767.88;5108349;27;20039;-66
2022/08/21 06:15:35;;;;;;;10.90;9.65;;;;;;;21.29;100.00;99764.09;5108769;27;20023;-66
2022/08/21 06:18:01;;;;;;;12.57;8.98;;;;;;;21.34;100.00;99767.84;5109234;27;20142;-66
2022/08/21 06:20:27;;;;;;;13.05;9.40;;;;;;;21.43;100.00;99757.50;5106388;28;20030;-66
2022/08/21 06:22:52;;;;;;;10.45;9.27;;;;;;;21.41;100.00;99754.16;5110061;27;20027;-66
2022/08/21 06:25:19;;;;;;;13.32;9.55;;;;;;;21.37;100.00;99745.56;5108277;27;20024;-66
2022/08/21 06:27:44;;;;;;;11.20;9.48;;;;;;;21.45;100.00;99758.97;5106743;27;20031;-65
2022/08/21 06:30:10;;;;;;;11.77;9.07;;;;;;;21.48;100.00;99752.25;5108831;27;20481;-65
2022/08/21 06:32:36;;;;;;;11.77;9.63;;;;;;;21.53;100.00;99757.84;5109413;27;20027;-66
2022/08/21 06:35:03;;;;;;;10.85;9.35;;;;;;;21.57;100.00;99757.22;5109124;27;20020;-66
2022/08/21 06:37:29;;;;;;;12.60;10.70;;;;;;;21.59;100.00;99746.91;5107652;27;20509;-66
2022/08/21 06:39:54;;;;;;;13.23;9.90;;;;;;;21.63;100.00;99763.69;5107712;28;20027;-64
2022/08/21 06:42:20;;;;;;;13.60;10.27;;;;;;;21.53;100.00;99738.75;5106612;27;20058;-64
2022/08/21 06:44:47;;;;;;;17.25;11.90;;;;;;;21.61;100.00;99747.53;5107529;27;20031;-64
2022/08/21 06:47:13;;;;;;;12.13;10.82;;;;;;;21.62;100.00;99748.38;5109414;27;20028;-65
2022/08/21 06:49:39;;;;;;;13.88;10.43;;;;;;;21.65;100.00;99746.03;5125028;27;20473;-64
2022/08/21 06:52:09;;;;;;;14.52;11.00;;;;;;;21.74;100.00;99743.91;5129972;27;20048;-64
2022/08/21 06:54:35;;;;;;;15.07;11.13;;;;;;;21.75;100.00;99740.97;5127838;27;20060;-65
2022/08/21 06:57:00;;;;;;;12.30;10.32;;;;;;;21.81;100.00;99744.72;5128888;27;20117;-64
2022/08/21 06:59:26;;;;;;;10.88;9.77;;;;;;;21.78;100.00;99736.97;5129777;27;20051;-65
2022/08/21 07:01:51;;;;;;;13.50;10.90;;;;;;;21.75;100.00;99734.66;5129648;27;20027;-64
2022/08/21 07:04:17;;;;;;;13.30;9.68;;;;;;;21.68;100.00;99726.50;5116542;27;20084;-64
2022/08/21 07:06:42;;;;;;;13.43;10.10;;;;;;;21.81;100.00;99728.31;5105268;28;20028;-64
2022/08/21 07:09:09;;;;;;;15.00;9.65;;;;;;;21.86;100.00;99739.44;5105788;28;20036;-64
2022/08/21 07:11:35;;;;;;;12.95;9.77;;;;;;;21.82;100.00;99741.75;5107976;27;20030;-64
2022/08/21 07:14:01;;;;;;;12.73;10.50;;;;;;;21.85;100.00;99741.31;5108757;27;20027;-65
2022/08/21 07:16:26;;;;;;;11.43;9.75;;;;;;;21.83;100.00;99740.69;5105205;28;20169;-64
2022/08/21 07:18:51;;;;;;;11.32;9.10;;;;;;;21.86;100.00;99739.44;5106613;28;20031;-66
2022/08/21 07:21:17;;;;;;;11.98;9.50;;;;;;;21.92;100.00;99749.44;5106944;27;20510;-65
2022/08/21 07:23:47;;;;;;;15.57;12.05;;;;;;;22.00;100.00;99743.72;5106542;28;20062;-66
2022/08/21 07:26:15;;;;;;;15.60;11.63;;;;;;;22.00;100.00;99746.47;5106555;28;20039;-66
2022/08/21 07:28:40;;;;;;;13.68;10.88;;;;;;;21.95;100.00;99744.38;5106565;28;20023;-65
2022/08/21 07:31:06;;;;;;;15.25;10.00;;;;;;;21.89;100.00;99744.44;5109200;27;20027;-65
2022/08/21 07:33:34;;;;;;;13.95;10.98;;;;;;;21.91;100.00;99745.06;5107868;27;20036;-64
2022/08/21 07:35:59;;;;;;;15.23;12.07;;;;;;;21.94;100.00;99753.66;5106283;28;20265;-65
2022/08/21 07:38:25;;;;;;;16.83;12.10;;;;;;;21.91;100.00;99750.50;5107495;27;20039;-64
2022/08/21 07:40:54;;;;;;;18.00;13.15;;;;;;;21.90;100.00;99757.84;5108338;27;20398;-65
2022/08/21 07:43:21;;;;;;;13.65;11.27;;;;;;;21.92;100.00;99752.19;5108212;27;20035;-64
2022/08/21 07:45:49;;;;;;;13.88;11.15;;;;;;;21.94;100.00;99753.66;5107430;27;20031;-64
2022/08/21 07:48:15;;;;;;;14.57;11.23;;;;;;;21.91;100.00;99731.41;5110797;27;20023;-65
2022/08/21 07:50:41;;;;;;;11.82;9.88;;;;;;;21.94;100.00;99744.63;5106654;27;20034;-65
2022/08/21 07:53:07;;;;;;;14.65;10.40;;;;;;;22.08;100.00;99752.47;5107309;27;20031;-64
2022/08/21 07:55:33;;;;;;;11.93;9.63;;;;;;;22.13;100.00;99749.09;5109767;28;20576;-65
2022/08/21 07:57:58;;;;;;;11.60;9.60;;;;;;;22.12;100.00;99752.88;5107854;27;20111;-65
2022/08/21 08:00:25;;;;;;;12.25;10.98;;;;;;;22.17;100.00;99747.56;5106207;28;20115;-65
2022/08/21 08:02:53;;;;;;;12.80;10.18;;;;;;;22.20;100.00;99752.59;5106059;27;20096;-64
2022/08/21 08:05:23;;;;;;;11.23;9.23;;;;;;;22.22;100.00;99756.78;5106814;28;20546;-65
2022/08/21 08:07:49;;;;;;;13.00;9.55;;;;;;;22.21;100.00;99748.78;5105365;28;20041;-64
2022/08/21 08:10:16;;;;;;;13.23;9.73;;;;;;;22.22;99.81;99745.03;5106393;28;20482;-65
2022/08/21 08:12:42;;;;;;;11.20;9.48;;;;;;;22.26;99.27;99751.72;5112227;27;20394;-64
2022/08/21 08:15:12;;;;;;;14.02;9.65;;;;;;;22.27;99.22;99743.28;5104158;28;20066;-64
2022/08/21 08:17:38;;;;;;;11.10;9.90;;;;;;;22.34;97.84;99737.75;5108783;27;20035;-65
2022/08/21 08:20:05;;;;;;;12.95;10.02;;;;;;;22.31;98.76;99749.97;5106954;27;20031;-65
2022/08/21 08:22:30;;;;;;;12.20;9.75;;;;;;;22.29;98.34;99730.22;5104096;28;20057;-64
2022/08/21 08:24:56;;;;;;;11.85;9.70;;;;;;;22.29;98.78;99740.34;5105636;28;20619;-64
2022/08/21 08:27:22;;;;;;;9.95;8.95;;;;;;;22.30;98.21;99736.53;5106528;28;20371;-64
2022/08/21 08:29:48;;;;;;;10.18;8.55;;;;;;;22.30;98.13;99747.47;5100037;28;20029;-65
2022/08/21 08:32:13;;;;;;;10.77;9.02;;;;;;;22.28;98.44;99736.75;5105451;28;20039;-66
2022/08/21 08:34:39;;;;;;;9.55;8.55;;;;;;;22.28;98.13;99734.03;5105554;28;20039;-66
2022/08/21 08:37:06;;;;;;;10.07;9.10;;;;;;;22.28;98.28;99741.41;5106860;28;20482;-66
2022/08/21 08:39:33;;;;;;;15.13;10.05;;;;;;;22.30;97.59;99733.81;5105935;28;20047;-65
2022/08/21 08:42:15;;;;;;;10.40;9.30;;;;;;;22.33;97.32;99736.94;5105608;28;20683;-66
2022/08/21 08:44:42;;;;;;;10.68;9.10;;;;;;;22.25;97.73;99730.91;5103079;28;20108;-65
2022/08/21 08:47:10;;;;;;;9.23;8.00;;;;;;;22.31;98.52;99732.72;5106879;28;20030;-65
2022/08/21 08:49:58;;;;;;;13.32;10.38;;;;;;;22.37;98.30;99739.22;5105455;28;20383;-66
2022/08/21 08:52:33;;;;;;;11.93;9.60;;;;;;;22.42;97.77;99743.75;5106071;28;20035;-65
2022/08/21 08:55:21;;;;;;;12.80;9.57;;;;;;;22.47;97.33;99745.81;5106074;28;20386;-65
2022/08/21 08:57:49;;;;;;;10.15;8.35;;;;;;;22.45;97.27;99744.38;5105260;28;20661;-65
2022/08/21 09:00:19;;;;;;;10.77;9.52;;;;;;;22.48;97.37;99755.72;5108589;28;20378;-65
2022/08/21 09:02:46;;;;;;;13.40;9.65;;;;;;;22.47;97.45;99748.56;5104328;28;20032;-65
2022/08/21 09:05:23;;;;;;;12.57;10.18;;;;;;;22.53;97.42;99750.44;5106063;28;20474;-66
2022/08/21 09:08:12;;;;;;;10.95;9.20;;;;;;;22.58;97.74;99750.59;5106931;28;20768;-65
2022/08/21 09:11:12;;;;;;;13.45;10.48;;;;;;;22.61;97.29;99752.88;5062935;28;20398;-65
2022/08/21 09:13:59;;;;;;;15.75;10.15;;;;;;;22.61;97.21;99752.88;5106231;28;20023;-64
2022/08/21 09:16:53;;;;;;;13.45;10.43;;;;;;;22.64;97.61;99755.16;5104088;28;20501;-64
2022/08/21 09:19:30;;;;;;;11.98;10.73;;;;;;;22.66;96.77;99754.94;5102511;28;20069;-64
2022/08/21 09:22:11;;;;;;;11.75;10.55;;;;;;;22.67;96.94;99753.88;5105225;28;20055;-64
2022/08/21 09:24:56;;;;;;;14.25;10.77;;;;;;;22.69;96.28;99749.03;5101971;28;20028;-64
2022/08/21 09:27:22;;;;;;;15.63;12.13;;;;;;;22.70;97.54;99756.97;5100334;28;20027;-65
2022/08/21 09:29:52;;;;;;;16.70;11.32;;;;;;;22.73;98.53;99759.25;5103161;28;20038;-68
2022/08/21 09:32:22;;;;;;;19.17;13.57;;;;;;;22.68;98.67;99753.66;5107264;27;20192;-68
2022/08/21 09:35:07;;;;;;;15.13;13.50;;;;;;;22.68;100.00;99750.91;5109478;27;20793;-68
2022/08/21 09:37:47;;;;;;;;;;;;;;;22.67;100.00;99752.00;5108667;27;20482;-67
2022/08/21 09:40:37;;;;;;;22.67;13.68;;;;;;;22.70;100.00;99758.88;5108396;28;19920;-67
2022/08/21 09:43:24;;;;;;;18.75;14.73;;;;;;;22.64;100.00;99755.16;5107854;28;20027;-68
2022/08/21 09:46:09;;;;;;;18.52;15.07;;;;;;;22.59;100.00;99745.94;5108137;27;20477;-67
2022/08/21 09:48:51;;;;;;;16.55;14.68;;;;;;;22.63;100.00;99755.41;5106324;28;20034;-68
2022/08/21 09:51:23;;;;;;;19.10;15.48;;;;;;;22.57;100.00;99754.38;5109598;27;20391;-68
2022/08/21 09:53:53;;;;;;;17.83;15.90;;;;;;;22.51;100.00;99758.03;5108125;28;20709;-67
2022/08/21 09:59:17;;;;;;;21.60;16.35;;;;;;;22.41;100.00;99746.75;5106437;28;20041;-67
2022/08/21 10:01:49;;;;;;;17.65;14.32;;;;;;;22.42;100.00;99757.44;5105165;27;20040;-67
2022/08/21 10:04:18;;;;;;;16.65;15.02;;;;;;;22.41;100.00;99749.47;5107639;27;20583;-67
2022/08/21 10:06:44;;;;;;;18.20;16.23;;;;;;;22.40;100.00;99753.25;5107433;27;20030;-67
2022/08/21 10:09:15;;;;;;;16.55;14.90;;;;;;;22.36;100.00;99746.56;5107336;27;20051;-68
2022/08/21 10:11:49;;;;;;;21.48;17.42;;;;;;;22.34;100.00;99752.25;5099819;27;20067;-68
2022/08/21 10:14:18;;;;;;;;;;;;;;;22.31;100.00;99749.97;5102945;27;20043;-67
2022/08/21 10:17:31;;;;;;;19.85;16.92;;;;;;;22.30;100.00;99752.94;5099719;28;20769;-68
2022/08/21 10:20:05;;;;;;;17.15;15.35;;;;;;;22.28;100.00;99757.81;5093646;28;20407;-68
2022/08/21 10:22:49;;;;;;;20.05;16.88;;;;;;;22.27;100.00;99753.38;5102555;28;20419;-68
2022/08/21 10:25:23;;;;;;;21.52;17.30;;;;;;;22.24;100.00;99756.56;5104362;27;20379;-68
2022/08/21 10:27:51;;;;;;;20.13;17.00;;;;;;;22.26;100.00;99758.03;5107480;27;20059;-68
2022/08/21 10:30:25;;;;;;;20.83;18.13;;;;;;;22.27;100.00;99758.84;5106877;27;20034;-68
2022/08/21 10:32:57;;;;;;;19.85;16.88;;;;;;;22.27;100.00;99759.69;5101895;27;20073;-68
2022/08/21 10:35:30;;;;;;;20.25;18.15;;;;;;;22.27;100.00;99759.69;5105046;27;20035;-68
2022/08/21 10:38:29;;;;;;;20.88;17.30;;;;;;;22.29;100.00;99770.38;5105756;27;20051;-67
2022/08/21 10:41:10;;;;;;;22.77;19.70;;;;;;;22.27;100.00;99756.09;5105289;27;20498;-68
2022/08/21 10:44:12;;;;;;;21.00;17.63;;;;;;;22.32;100.00;99764.47;5100142;28;20039;-68
2022/08/21 10:46:56;;;;;;;19.85;17.45;;;;;;;22.32;100.00;99765.28;5102658;28;20077;-67
2022/08/21 10:49:21;;;;;;;23.08;18.30;;;;;;;22.34;100.00;99757.72;5109382;27;20031;-67
2022/08/21 10:52:01;;;;;;;19.58;17.58;;;;;;;22.35;100.00;99755.84;5104100;27;20047;-68
2022/08/21 10:54:51;;;;;;;19.95;17.85;;;;;;;22.38;100.00;99754.53;5098890;27;20699;-68
2022/08/21 10:57:42;;;;;;;18.98;16.98;;;;;;;22.41;100.00;99757.69;5100256;28;20431;-68
2022/08/21 11:00:15;;;;;;;17.80;15.73;;;;;;;22.40;100.00;99750.53;5103751;27;20118;-68
2022/08/21 11:03:10;;;;;;;16.85;15.15;;;;;;;22.46;100.00;99754.25;5103170;27;20056;-68
2022/08/21 11:05:53;;;;;;;18.67;15.88;;;;;;;22.43;100.00;99744.59;5104806;27;20714;-68
2022/08/21 11:08:26;;;;;;;17.52;15.52;;;;;;;22.40;100.00;99741.50;5104145;28;20024;-68
2022/08/21 11:11:00;;;;;;;16.52;14.88;;;;;;;22.38;100.00;99737.06;5106686;27;20745;-68
2022/08/21 11:13:47;;;;;;;18.13;16.23;;;;;;;22.46;100.00;99746.03;5101284;27;20023;-66
2022/08/21 11:16:40;;;;;;;15.52;13.93;;;;;;;22.47;100.00;99745.00;5097581;27;20039;-66
2022/08/21 11:19:22;;;;;;;16.53;14.77;;;;;;;22.42;100.00;99740.22;5086402;28;20034;-68
2022/08/21 11:22:13;;;;;;;16.10;14.50;;;;;;;22.48;100.00;99747.53;5103647;27;20051;-68
2022/08/21 11:24:46;;;;;;;16.10;14.50;;;;;;;22.48;100.00;99744.78;5103049;28;20046;-68
2022/08/21 11:27:28;;;;;;;17.83;15.60;;;;;;;22.48;100.00;99730.28;5104491;27;20105;-68
2022/08/21 11:29:56;;;;;;;16.13;14.43;;;;;;;22.54;100.00;99743.91;5104930;28;20062;-68
2022/08/21 11:32:39;;;;;;;17.05;15.35;;;;;;;22.53;100.00;99735.94;5104877;27;20858;-67